createdAt,value
2019-04-06T00:00:27.016Z,0.00
2019-04-06T00:01:27.029Z,0.00
2019-04-06T00:02:26.999Z,0.00
2019-04-06T00:03:26.982Z,0.00
2019-04-06T00:04:26.979Z,0.00
2019-04-06T00:05:26.980Z,0.00
2019-04-06T00:06:26.969Z,0.00
2019-04-06T00:07:26.949Z,0.00
2019-04-06T00:08:26.960Z,0.00
2019-04-06T00:09:26.918Z,0.00
2019-04-06T00:10:26.902Z,0.00
2019-04-06T00:11:26.922Z,0.00
2019-04-06T00:12:26.902Z,0.00
2019-04-06T00:13:26.887Z,0.00
2019-04-06T00:14:26.870Z,0.00
2019-04-06T00:15:26.851Z,0.00
2019-04-06T00:16:26.866Z,0.00
2019-04-06T00:17:26.834Z,0.00
2019-04-06T00:18:26.816Z,0.00
2019-04-06T00:19:26.806Z,0.00
2019-04-06T00:20:26.798Z,0.00
2019-04-06T00:21:26.814Z,0.00
2019-04-06T00:22:26.774Z,0.00
2019-04-06T00:23:26.767Z,0.00
2019-04-06T00:24:26.745Z,0.00
2019-04-06T00:25:26.752Z,0.00
2019-04-06T00:26:26.755Z,0.00
2019-04-06T00:27:26.734Z,0.00
2019-04-06T00:28:26.719Z,0.00
2019-04-06T00:29:26.734Z,0.00
2019-04-06T00:30:26.681Z,0.00
2019-04-06T00:31:26.688Z,0.00
2019-04-06T00:32:26.684Z,0.00
2019-04-06T00:33:26.657Z,0.00
2019-04-06T00:34:26.649Z,0.00
2019-04-06T00:35:26.648Z,0.00
2019-04-06T00:36:26.625Z,0.00
2019-04-06T00:37:26.626Z,0.00
2019-04-06T00:38:26.613Z,0.00
2019-04-06T00:39:26.586Z,0.00
2019-04-06T00:40:26.581Z,0.00
2019-04-06T00:41:26.573Z,0.00
2019-04-06T00:42:26.591Z,0.00
2019-04-06T00:43:26.554Z,0.00
2019-04-06T00:44:26.545Z,0.00
2019-04-06T00:45:26.522Z,0.00
2019-04-06T00:46:26.522Z,0.00
2019-04-06T00:47:26.518Z,0.00
2019-04-06T00:48:26.519Z,0.00
2019-04-06T00:49:26.490Z,0.00
2019-04-06T00:50:26.478Z,0.00
2019-04-06T00:51:26.476Z,0.00
2019-04-06T00:52:26.473Z,0.00
2019-04-06T00:53:26.439Z,0.00
2019-04-06T00:54:26.428Z,0.00
2019-04-06T00:55:26.414Z,0.00
2019-04-06T00:56:26.407Z,0.00
2019-04-06T00:57:26.422Z,0.00
2019-04-06T00:58:26.397Z,0.00
2019-04-06T00:59:26.384Z,0.00
2019-04-06T01:00:26.361Z,0.00
2019-04-06T01:01:26.359Z,0.00
2019-04-06T01:02:26.360Z,0.00
2019-04-06T01:04:46.473Z,0.00
2019-04-06T01:05:47.442Z,0.00
2019-04-06T01:06:47.435Z,0.00
2019-04-06T01:07:47.442Z,0.00
2019-04-06T01:08:47.423Z,0.00
2019-04-06T01:09:48.304Z,0.00
2019-04-06T01:10:47.403Z,0.00
2019-04-06T01:11:47.383Z,0.00
2019-04-06T01:12:47.389Z,0.00
2019-04-06T01:13:47.364Z,0.00
2019-04-06T01:14:47.378Z,0.00
2019-04-06T01:15:47.348Z,0.00
2019-04-06T01:16:47.339Z,0.00
2019-04-06T01:17:47.329Z,0.00
2019-04-06T01:18:47.338Z,0.00
2019-04-06T01:19:47.305Z,0.00
2019-04-06T01:20:47.292Z,0.00
2019-04-06T01:21:47.271Z,0.00
2019-04-06T01:22:47.274Z,0.00
2019-04-06T01:23:47.266Z,0.00
2019-04-06T01:24:47.255Z,0.00
2019-04-06T01:25:47.234Z,0.00
2019-04-06T01:26:47.226Z,0.00
2019-04-06T01:27:47.219Z,0.00
2019-04-06T01:28:47.225Z,0.00
2019-04-06T01:29:47.199Z,0.00
2019-04-06T01:30:47.216Z,0.00
2019-04-06T01:31:47.176Z,0.00
2019-04-06T01:32:47.166Z,0.00
2019-04-06T01:33:47.173Z,0.00
2019-04-06T01:34:47.143Z,0.00
2019-04-06T01:35:47.127Z,0.00
2019-04-06T01:36:47.122Z,0.00
2019-04-06T01:37:47.104Z,0.00
2019-04-06T01:38:47.158Z,0.00
2019-04-06T01:39:47.082Z,0.00
2019-04-06T01:40:47.067Z,0.00
2019-04-06T01:41:47.074Z,0.00
2019-04-06T01:42:47.059Z,0.00
2019-04-06T01:43:47.059Z,0.00
2019-04-06T01:44:47.044Z,0.00
2019-04-06T01:45:47.109Z,0.00
2019-04-06T01:46:47.065Z,0.00
2019-04-06T01:47:47.827Z,0.00
2019-04-06T01:48:47.346Z,0.00
2019-04-06T01:49:47.817Z,0.00
2019-04-06T01:50:47.807Z,0.00
2019-04-06T01:51:47.806Z,0.00
2019-04-06T01:52:47.797Z,0.00
2019-04-06T01:53:46.998Z,0.00
2019-04-06T01:54:46.997Z,0.00
2019-04-06T01:55:46.952Z,0.00
2019-04-06T01:56:46.894Z,0.00
2019-04-06T01:57:46.888Z,0.00
2019-04-06T01:58:46.896Z,0.00
2019-04-06T01:59:46.873Z,0.00
2019-04-06T02:00:46.860Z,0.00
2019-04-06T02:01:46.850Z,0.00
2019-04-06T02:02:46.828Z,0.00
2019-04-06T02:03:46.886Z,0.00
2019-04-06T02:04:46.833Z,0.00
2019-04-06T02:05:46.815Z,0.00
2019-04-06T02:06:46.792Z,0.00
2019-04-06T02:07:46.781Z,0.00
2019-04-06T02:08:46.829Z,0.00
2019-04-06T02:09:46.866Z,0.00
2019-04-06T02:10:46.740Z,0.00
2019-04-06T02:11:46.737Z,0.00
2019-04-06T02:12:46.752Z,0.00
2019-04-06T02:13:46.708Z,0.00
2019-04-06T02:14:46.713Z,0.00
2019-04-06T02:15:46.720Z,0.00
2019-04-06T02:16:46.688Z,0.00
2019-04-06T02:17:46.660Z,0.00
2019-04-06T02:18:46.662Z,0.00
2019-04-06T02:19:46.659Z,0.00
2019-04-06T02:20:46.638Z,0.00
2019-04-06T02:21:46.642Z,0.00
2019-04-06T02:22:46.618Z,0.00
2019-04-06T02:23:46.645Z,0.00
2019-04-06T02:24:46.612Z,0.00
2019-04-06T02:25:46.575Z,0.00
2019-04-06T02:26:46.576Z,0.00
2019-04-06T02:27:46.559Z,0.00
2019-04-06T02:28:46.544Z,0.00
2019-04-06T02:29:46.642Z,0.00
2019-04-06T02:30:46.546Z,0.00
2019-04-06T02:31:46.548Z,0.00
2019-04-06T02:32:46.508Z,0.00
2019-04-06T02:33:46.497Z,0.00
2019-04-06T02:34:46.478Z,0.00
2019-04-06T02:35:46.498Z,0.00
2019-04-06T02:36:46.454Z,0.00
2019-04-06T02:37:46.610Z,0.00
2019-04-06T02:38:47.406Z,0.00
2019-04-06T02:39:46.425Z,0.00
2019-04-06T02:40:46.518Z,0.00
2019-04-06T02:41:46.403Z,0.00
2019-04-06T02:42:46.393Z,0.00
2019-04-06T02:43:46.393Z,0.00
2019-04-06T02:44:46.383Z,0.00
2019-04-06T02:45:46.373Z,0.00
2019-04-06T02:46:46.360Z,0.00
2019-04-06T02:47:46.338Z,0.00
2019-04-06T02:48:46.334Z,0.00
2019-04-06T02:49:46.322Z,0.00
2019-04-06T02:50:46.340Z,0.00
2019-04-06T02:51:46.301Z,0.00
2019-04-06T02:52:46.296Z,0.00
2019-04-06T02:53:46.660Z,0.00
2019-04-06T02:54:46.272Z,0.00
2019-04-06T02:55:46.267Z,0.00
2019-04-06T02:56:47.868Z,0.00
2019-04-06T02:57:46.233Z,0.00
2019-04-06T02:58:46.215Z,0.00
2019-04-06T02:59:46.207Z,0.00
2019-04-06T03:00:46.495Z,0.00
2019-04-06T03:01:46.210Z,0.00
2019-04-06T03:02:46.177Z,0.00
2019-04-06T03:03:46.173Z,0.00
2019-04-06T03:05:55.349Z,0.00
2019-04-06T03:06:56.362Z,0.00
2019-04-06T03:07:56.321Z,0.00
2019-04-06T03:08:56.316Z,0.00
2019-04-06T03:09:56.365Z,0.00
2019-04-06T03:10:56.301Z,0.00
2019-04-06T03:11:56.313Z,0.00
2019-04-06T03:12:56.284Z,0.00
2019-04-06T03:13:56.491Z,0.00
2019-04-06T03:14:56.259Z,0.00
2019-04-06T03:15:56.360Z,0.00
2019-04-06T03:16:56.250Z,0.00
2019-04-06T03:17:56.227Z,0.00
2019-04-06T03:18:56.209Z,0.00
2019-04-06T03:19:56.207Z,0.00
2019-04-06T03:20:56.285Z,0.00
2019-04-06T03:21:56.197Z,0.00
2019-04-06T03:22:56.175Z,0.00
2019-04-06T03:23:56.211Z,0.00
2019-04-06T03:24:56.145Z,0.00
2019-04-06T03:25:56.177Z,0.00
2019-04-06T03:27:02.278Z,0.00
2019-04-06T03:27:56.215Z,0.00
2019-04-06T03:28:56.113Z,0.00
2019-04-06T03:29:58.142Z,0.00
2019-04-06T03:30:56.088Z,0.00
2019-04-06T03:31:56.087Z,0.00
2019-04-06T03:32:56.045Z,0.00
2019-04-06T03:33:56.348Z,0.00
2019-04-06T03:34:56.037Z,0.00
2019-04-06T03:35:56.030Z,0.00
2019-04-06T03:36:56.032Z,0.00
2019-04-06T03:37:56.137Z,0.00
2019-04-06T03:38:55.987Z,0.00
2019-04-06T03:39:55.989Z,0.00
2019-04-06T03:40:55.972Z,0.00
2019-04-06T03:41:55.987Z,0.00
2019-04-06T03:42:55.952Z,0.00
2019-04-06T03:43:55.937Z,0.00
2019-04-06T03:44:55.971Z,0.00
2019-04-06T03:45:55.920Z,0.00
2019-04-06T03:46:55.913Z,0.00
2019-04-06T03:47:55.961Z,0.00
2019-04-06T03:48:55.878Z,0.00
2019-04-06T03:49:55.894Z,0.00
2019-04-06T03:50:55.869Z,0.00
2019-04-06T03:51:55.853Z,0.00
2019-04-06T03:52:55.848Z,0.00
2019-04-06T03:53:55.829Z,0.00
2019-04-06T03:54:55.824Z,0.00
2019-04-06T03:55:55.854Z,0.00
2019-04-06T03:56:55.794Z,0.00
2019-04-06T03:57:55.801Z,0.00
2019-04-06T03:58:55.761Z,0.00
2019-04-06T03:59:55.762Z,0.00
2019-04-06T04:00:55.757Z,0.00
2019-04-06T04:01:55.742Z,0.00
2019-04-06T04:02:56.632Z,0.00
2019-04-06T04:03:55.713Z,0.00
2019-04-06T04:04:55.697Z,0.00
2019-04-06T04:05:55.701Z,0.00
2019-04-06T04:06:55.842Z,0.00
2019-04-06T04:07:55.688Z,0.00
2019-04-06T04:08:55.672Z,0.00
2019-04-06T04:09:55.642Z,0.00
2019-04-06T04:10:55.626Z,0.00
2019-04-06T04:11:55.619Z,0.00
2019-04-06T04:12:55.641Z,0.00
2019-04-06T04:13:55.596Z,0.00
2019-04-06T04:14:55.617Z,0.00
2019-04-06T04:15:57.122Z,0.00
2019-04-06T04:16:55.561Z,0.00
2019-04-06T04:17:55.581Z,0.00
2019-04-06T04:18:55.699Z,0.00
2019-04-06T04:19:55.544Z,0.00
2019-04-06T04:20:55.521Z,0.00
2019-04-06T04:21:55.511Z,0.00
2019-04-06T04:22:55.520Z,0.00
2019-04-06T04:23:55.489Z,0.00
2019-04-06T04:24:55.497Z,0.00
2019-04-06T04:25:55.492Z,0.00
2019-04-06T04:26:55.479Z,0.00
2019-04-06T04:27:55.473Z,0.00
2019-04-06T04:28:55.442Z,0.00
2019-04-06T04:29:55.491Z,0.00
2019-04-06T04:30:55.461Z,0.00
2019-04-06T04:31:55.420Z,0.00
2019-04-06T04:32:55.411Z,0.00
2019-04-06T04:33:55.453Z,0.00
2019-04-06T04:34:55.376Z,0.00
2019-04-06T04:35:55.366Z,0.00
2019-04-06T04:36:55.489Z,0.00
2019-04-06T04:37:55.337Z,0.00
2019-04-06T04:38:55.360Z,0.00
2019-04-06T04:39:55.337Z,0.00
2019-04-06T04:40:55.517Z,0.00
2019-04-06T04:41:55.313Z,0.00
2019-04-06T04:42:55.278Z,0.00
2019-04-06T04:43:55.288Z,0.00
2019-04-06T04:44:55.278Z,0.00
2019-04-06T04:45:55.431Z,0.00
2019-04-06T04:46:55.242Z,0.00
2019-04-06T04:47:55.223Z,0.00
2019-04-06T04:48:55.259Z,0.00
2019-04-06T04:49:55.211Z,0.00
2019-04-06T04:50:55.191Z,5.62
2019-04-06T04:51:55.270Z,5.62
2019-04-06T04:52:55.253Z,5.62
2019-04-06T04:53:55.180Z,5.62
2019-04-06T04:54:55.150Z,5.62
2019-04-06T04:55:55.143Z,5.62
2019-04-06T04:56:55.150Z,5.62
2019-04-06T04:57:55.110Z,5.62
2019-04-06T04:58:55.113Z,5.62
2019-04-06T04:59:55.091Z,5.62
2019-04-06T05:00:55.152Z,5.62
2019-04-06T05:01:55.074Z,11.25
2019-04-06T05:02:55.070Z,11.25
2019-04-06T05:03:55.078Z,11.25
2019-04-06T05:04:55.039Z,11.25
2019-04-06T05:07:04.520Z,11.25
2019-04-06T05:08:05.511Z,11.25
2019-04-06T05:09:05.515Z,16.88
2019-04-06T05:10:05.716Z,16.88
2019-04-06T05:11:05.472Z,16.88
2019-04-06T05:12:05.458Z,16.88
2019-04-06T05:13:05.642Z,16.88
2019-04-06T05:14:05.707Z,16.88
2019-04-06T05:15:05.486Z,22.50
2019-04-06T05:16:05.414Z,22.50
2019-04-06T05:17:05.493Z,28.12
2019-04-06T05:18:05.404Z,28.12
2019-04-06T05:19:05.407Z,28.12
2019-04-06T05:20:05.369Z,28.12
2019-04-06T05:21:05.357Z,28.12
2019-04-06T05:22:05.361Z,33.75
2019-04-06T05:23:05.505Z,33.75
2019-04-06T05:24:05.362Z,33.75
2019-04-06T05:25:05.583Z,33.75
2019-04-06T05:26:05.406Z,33.75
2019-04-06T05:27:05.296Z,33.75
2019-04-06T05:28:05.307Z,39.38
2019-04-06T05:29:05.268Z,39.38
2019-04-06T05:30:05.407Z,39.38
2019-04-06T05:31:05.247Z,39.38
2019-04-06T05:32:05.247Z,39.38
2019-04-06T05:33:05.266Z,45.00
2019-04-06T05:34:05.219Z,45.00
2019-04-06T05:35:05.230Z,50.62
2019-04-06T05:36:05.205Z,50.62
2019-04-06T05:37:05.191Z,50.62
2019-04-06T05:38:05.182Z,50.62
2019-04-06T05:39:05.228Z,50.62
2019-04-06T05:40:05.391Z,56.25
2019-04-06T05:41:05.214Z,56.25
2019-04-06T05:42:05.132Z,61.88
2019-04-06T05:43:05.149Z,61.88
2019-04-06T05:44:05.160Z,67.50
2019-04-06T05:45:05.127Z,73.12
2019-04-06T05:46:05.107Z,78.75
2019-04-06T05:47:05.084Z,78.75
2019-04-06T05:48:05.062Z,78.75
2019-04-06T05:49:05.087Z,84.38
2019-04-06T05:50:05.275Z,84.38
2019-04-06T05:51:05.035Z,84.38
2019-04-06T05:52:05.055Z,90.00
2019-04-06T05:53:05.015Z,95.62
2019-04-06T05:54:05.008Z,90.00
2019-04-06T05:55:05.013Z,90.00
2019-04-06T05:56:04.991Z,95.62
2019-04-06T05:57:05.115Z,90.00
2019-04-06T05:58:09.776Z,95.62
2019-04-06T05:59:04.958Z,95.62
2019-04-06T06:00:05.004Z,95.62
2019-04-06T06:01:04.933Z,106.88
2019-04-06T06:02:04.918Z,123.75
2019-04-06T06:03:05.133Z,123.75
2019-04-06T06:04:04.903Z,129.38
2019-04-06T06:05:04.887Z,123.75
2019-04-06T06:06:04.974Z,123.75
2019-04-06T06:07:04.879Z,123.75
2019-04-06T06:08:04.842Z,118.12
2019-04-06T06:09:04.847Z,112.50
2019-04-06T06:10:04.846Z,106.88
2019-04-06T06:11:05.065Z,112.50
2019-04-06T06:12:04.884Z,112.50
2019-04-06T06:13:04.785Z,112.50
2019-04-06T06:14:04.799Z,118.12
2019-04-06T06:15:04.767Z,118.12
2019-04-06T06:16:04.884Z,123.75
2019-04-06T06:17:04.765Z,135.00
2019-04-06T06:18:04.736Z,129.38
2019-04-06T06:19:04.735Z,129.38
2019-04-06T06:20:04.737Z,135.00
2019-04-06T06:21:04.729Z,135.00
2019-04-06T06:22:04.719Z,129.38
2019-04-06T06:23:04.706Z,140.62
2019-04-06T06:24:04.670Z,146.25
2019-04-06T06:25:04.965Z,140.62
2019-04-06T06:26:04.685Z,157.50
2019-04-06T06:27:04.660Z,163.12
2019-04-06T06:28:13.806Z,151.88
2019-04-06T06:29:04.667Z,151.88
2019-04-06T06:30:04.644Z,157.50
2019-04-06T06:31:04.606Z,157.50
2019-04-06T06:32:04.575Z,157.50
2019-04-06T06:33:04.596Z,163.12
2019-04-06T06:34:04.557Z,163.12
2019-04-06T06:35:04.588Z,168.75
2019-04-06T06:36:04.573Z,185.62
2019-04-06T06:37:04.531Z,185.62
2019-04-06T06:38:04.520Z,180.00
2019-04-06T06:39:04.512Z,180.00
2019-04-06T06:40:04.499Z,174.38
2019-04-06T06:41:04.526Z,174.38
2019-04-06T06:42:04.478Z,185.62
2019-04-06T06:43:04.473Z,185.62
2019-04-06T06:44:04.576Z,185.62
2019-04-06T06:45:04.429Z,180.00
2019-04-06T06:46:04.547Z,168.75
2019-04-06T06:47:04.418Z,163.12
2019-04-06T06:48:04.409Z,168.75
2019-04-06T06:49:04.386Z,174.38
2019-04-06T06:50:04.383Z,168.75
2019-04-06T06:51:04.401Z,163.12
2019-04-06T06:52:04.367Z,168.75
2019-04-06T06:53:04.360Z,168.75
2019-04-06T06:54:04.336Z,168.75
2019-04-06T06:55:04.329Z,174.38
2019-04-06T06:56:04.458Z,185.62
2019-04-06T06:57:04.318Z,191.25
2019-04-06T06:58:04.560Z,191.25
2019-04-06T06:59:04.286Z,174.38
2019-04-06T07:00:04.282Z,168.75
2019-04-06T07:01:04.287Z,163.12
2019-04-06T07:02:04.251Z,163.12
2019-04-06T07:03:04.236Z,157.50
2019-04-06T07:04:04.234Z,157.50
2019-04-06T07:05:04.336Z,157.50
2019-04-06T07:06:04.506Z,163.12
2019-04-06T07:08:13.387Z,168.75
2019-04-06T07:09:14.372Z,174.38
2019-04-06T07:10:14.366Z,180.00
2019-04-06T07:11:14.378Z,180.00
2019-04-06T07:12:14.340Z,185.62
2019-04-06T07:13:14.333Z,185.62
2019-04-06T07:14:14.405Z,191.25
2019-04-06T07:15:14.317Z,185.62
2019-04-06T07:16:14.453Z,191.25
2019-04-06T07:17:14.354Z,196.88
2019-04-06T07:18:14.276Z,202.50
2019-04-06T07:19:14.267Z,196.88
2019-04-06T07:20:14.261Z,196.88
2019-04-06T07:21:16.569Z,202.50
2019-04-06T07:22:14.246Z,196.88
2019-04-06T07:23:14.229Z,191.25
2019-04-06T07:24:14.207Z,180.00
2019-04-06T07:25:14.199Z,180.00
2019-04-06T07:26:14.228Z,185.62
2019-04-06T07:27:14.196Z,185.62
2019-04-06T07:28:14.177Z,174.38
2019-04-06T07:29:14.155Z,163.12
2019-04-06T07:30:14.285Z,157.50
2019-04-06T07:31:14.138Z,163.12
2019-04-06T07:32:14.144Z,180.00
2019-04-06T07:33:14.257Z,185.62
2019-04-06T07:34:14.108Z,191.25
2019-04-06T07:35:14.330Z,202.50
2019-04-06T07:36:14.236Z,213.75
2019-04-06T07:37:14.080Z,225.00
2019-04-06T07:38:14.077Z,236.25
2019-04-06T07:39:14.052Z,230.62
2019-04-06T07:40:14.033Z,236.25
2019-04-06T07:41:14.174Z,236.25
2019-04-06T07:42:14.035Z,247.50
2019-04-06T07:43:14.006Z,281.25
2019-04-06T07:44:13.986Z,292.50
2019-04-06T07:45:13.984Z,303.75
2019-04-06T07:46:14.074Z,331.88
2019-04-06T07:47:14.641Z,348.75
2019-04-06T07:48:13.947Z,354.38
2019-04-06T07:49:13.950Z,421.88
2019-04-06T07:50:13.933Z,444.38
2019-04-06T07:51:13.910Z,427.50
2019-04-06T07:52:13.934Z,461.25
2019-04-06T07:53:13.905Z,506.25
2019-04-06T07:54:13.884Z,540.00
2019-04-06T07:55:13.870Z,551.25
2019-04-06T07:56:13.874Z,500.62
2019-04-06T07:57:14.369Z,573.75
2019-04-06T07:58:13.847Z,540.00
2019-04-06T07:59:13.833Z,691.88
2019-04-06T08:00:13.823Z,601.88
2019-04-06T08:01:13.808Z,500.62
2019-04-06T08:02:14.114Z,483.75
2019-04-06T08:03:13.781Z,630.00
2019-04-06T08:04:13.770Z,534.38
2019-04-06T08:05:13.765Z,635.62
2019-04-06T08:06:13.749Z,877.50
2019-04-06T08:07:13.770Z,1535.62
2019-04-06T08:08:13.728Z,1411.88
2019-04-06T08:09:13.717Z,1518.75
2019-04-06T08:10:13.745Z,1518.75
2019-04-06T08:11:13.691Z,1507.50
2019-04-06T08:12:13.705Z,1648.12
2019-04-06T08:13:13.684Z,1693.12
2019-04-06T08:14:13.829Z,1316.25
2019-04-06T08:15:13.650Z,911.25
2019-04-06T08:16:13.642Z,804.38
2019-04-06T08:17:13.658Z,894.38
2019-04-06T08:18:13.617Z,905.62
2019-04-06T08:19:13.604Z,1603.12
2019-04-06T08:20:13.838Z,1260.00
2019-04-06T08:21:13.654Z,1141.88
2019-04-06T08:22:13.591Z,916.88
2019-04-06T08:23:13.555Z,855.00
2019-04-06T08:24:13.542Z,838.12
2019-04-06T08:25:13.542Z,1569.38
2019-04-06T08:26:13.528Z,1766.25
2019-04-06T08:27:13.527Z,1777.50
2019-04-06T08:28:13.503Z,900.00
2019-04-06T08:29:13.507Z,1608.75
2019-04-06T08:30:13.525Z,1006.88
2019-04-06T08:31:13.463Z,1119.38
2019-04-06T08:32:13.483Z,1530.00
2019-04-06T08:33:13.470Z,1231.88
2019-04-06T08:34:14.069Z,860.62
2019-04-06T08:35:23.965Z,905.62
2019-04-06T08:36:13.416Z,781.88
2019-04-06T08:37:13.420Z,714.38
2019-04-06T08:38:13.416Z,742.50
2019-04-06T08:39:13.637Z,708.75
2019-04-06T08:40:13.400Z,765.00
2019-04-06T08:41:13.362Z,1316.25
2019-04-06T08:42:13.344Z,675.00
2019-04-06T08:43:13.361Z,714.38
2019-04-06T08:44:13.338Z,916.88
2019-04-06T08:45:14.153Z,1507.50
2019-04-06T08:46:13.309Z,1867.50
2019-04-06T08:47:13.282Z,1338.75
2019-04-06T08:48:13.384Z,1569.38
2019-04-06T08:49:13.265Z,2165.62
2019-04-06T08:50:13.266Z,2131.88
2019-04-06T08:51:13.284Z,1653.75
2019-04-06T08:52:13.281Z,1310.62
2019-04-06T08:53:13.251Z,1935.00
2019-04-06T08:54:13.224Z,1985.62
2019-04-06T08:55:13.360Z,1788.75
2019-04-06T08:56:13.314Z,1569.38
2019-04-06T08:57:13.186Z,1479.38
2019-04-06T08:58:13.193Z,1755.00
2019-04-06T08:59:13.680Z,1963.12
2019-04-06T09:00:13.149Z,1586.25
2019-04-06T09:01:13.130Z,1456.88
2019-04-06T09:02:13.126Z,1552.50
2019-04-06T09:03:13.147Z,1158.75
2019-04-06T09:04:13.250Z,973.12
2019-04-06T09:05:13.102Z,1378.12
2019-04-06T09:06:13.077Z,2345.62
2019-04-06T09:07:13.071Z,2396.25
2019-04-06T09:09:22.268Z,2283.75
2019-04-06T09:10:23.236Z,2311.88
2019-04-06T09:11:23.226Z,2261.25
2019-04-06T09:12:23.206Z,1912.50
2019-04-06T09:13:23.199Z,1389.38
2019-04-06T09:14:23.254Z,2221.88
2019-04-06T09:15:23.173Z,2041.88
2019-04-06T09:16:23.287Z,2143.12
2019-04-06T09:17:23.165Z,2328.75
2019-04-06T09:18:23.136Z,2081.25
2019-04-06T09:19:23.151Z,1485.00
2019-04-06T09:20:23.127Z,1563.75
2019-04-06T09:21:23.106Z,2041.88
2019-04-06T09:22:23.106Z,2345.62
2019-04-06T09:23:23.083Z,1777.50
2019-04-06T09:24:23.100Z,1445.62
2019-04-06T09:25:23.085Z,2030.62
2019-04-06T09:26:23.132Z,2261.25
2019-04-06T09:27:23.044Z,2070.00
2019-04-06T09:28:23.117Z,1141.88
2019-04-06T09:29:24.590Z,1299.38
2019-04-06T09:30:23.018Z,2098.12
2019-04-06T09:31:23.001Z,2317.50
2019-04-06T09:32:23.199Z,2390.62
2019-04-06T09:33:22.992Z,2289.38
2019-04-06T09:34:23.139Z,1265.62
2019-04-06T09:35:22.956Z,1237.50
2019-04-06T09:36:22.958Z,1760.62
2019-04-06T09:37:22.936Z,1372.50
2019-04-06T09:38:23.148Z,1805.62
2019-04-06T09:39:22.921Z,2497.50
2019-04-06T09:40:22.893Z,2289.38
2019-04-06T09:41:22.894Z,2430.00
2019-04-06T09:42:22.873Z,2548.12
2019-04-06T09:43:22.874Z,2694.38
2019-04-06T09:44:22.900Z,2694.38
2019-04-06T09:45:22.848Z,2649.38
2019-04-06T09:46:22.829Z,2621.25
2019-04-06T09:47:22.817Z,2626.88
2019-04-06T09:48:22.808Z,2615.62
2019-04-06T09:49:22.826Z,2565.00
2019-04-06T09:50:22.802Z,2531.25
2019-04-06T09:51:22.789Z,2424.38
2019-04-06T09:52:22.772Z,2328.75
2019-04-06T09:53:22.765Z,2615.62
2019-04-06T09:54:22.750Z,2525.62
2019-04-06T09:55:22.821Z,2643.75
2019-04-06T09:56:22.718Z,2542.50
2019-04-06T09:57:22.713Z,2491.88
2019-04-06T09:58:22.713Z,1558.12
2019-04-06T09:59:34.256Z,2233.12
2019-04-06T10:00:22.681Z,1400.62
2019-04-06T10:01:22.688Z,1198.12
2019-04-06T10:02:22.677Z,2497.50
2019-04-06T10:03:22.655Z,1198.12
2019-04-06T10:04:22.631Z,1659.38
2019-04-06T10:05:22.890Z,1372.50
2019-04-06T10:06:22.625Z,1597.50
2019-04-06T10:07:22.840Z,1771.88
2019-04-06T10:08:22.596Z,1372.50
2019-04-06T10:09:22.582Z,1721.25
2019-04-06T10:10:22.598Z,2165.62
2019-04-06T10:11:22.560Z,2407.50
2019-04-06T10:12:22.551Z,2491.88
2019-04-06T10:13:22.589Z,2441.25
2019-04-06T10:14:22.533Z,2446.88
2019-04-06T10:15:22.540Z,2396.25
2019-04-06T10:16:22.501Z,2221.88
2019-04-06T10:17:22.678Z,781.88
2019-04-06T10:18:22.478Z,663.75
2019-04-06T10:19:22.499Z,748.12
2019-04-06T10:20:22.835Z,585.00
2019-04-06T10:21:22.461Z,540.00
2019-04-06T10:22:22.436Z,568.12
2019-04-06T10:23:22.534Z,590.62
2019-04-06T10:24:22.427Z,607.50
2019-04-06T10:25:22.445Z,613.12
2019-04-06T10:26:22.396Z,646.88
2019-04-06T10:27:22.391Z,669.38
2019-04-06T10:28:22.377Z,731.25
2019-04-06T10:29:22.594Z,843.75
2019-04-06T10:30:22.361Z,1119.38
2019-04-06T10:31:22.346Z,1721.25
2019-04-06T10:32:22.340Z,1136.25
2019-04-06T10:33:22.342Z,1957.50
2019-04-06T10:34:22.322Z,2373.75
2019-04-06T10:35:22.320Z,2491.88
2019-04-06T10:36:22.338Z,2508.75
2019-04-06T10:37:22.445Z,2542.50
2019-04-06T10:38:22.281Z,2536.88
2019-04-06T10:39:22.269Z,2497.50
2019-04-06T10:40:22.265Z,2536.88
2019-04-06T10:41:22.246Z,2491.88
2019-04-06T10:42:22.229Z,2503.12
2019-04-06T10:43:22.208Z,2430.00
2019-04-06T10:44:22.197Z,2289.38
2019-04-06T10:45:22.408Z,1968.75
2019-04-06T10:46:22.194Z,2171.25
2019-04-06T10:47:22.320Z,1175.62
2019-04-06T10:48:22.517Z,759.38
2019-04-06T10:49:22.177Z,810.00
2019-04-06T10:50:22.129Z,787.50
2019-04-06T10:51:22.129Z,810.00
2019-04-06T10:52:22.123Z,905.62
2019-04-06T10:53:22.103Z,1338.75
2019-04-06T10:54:22.092Z,1929.38
2019-04-06T10:55:22.086Z,1974.38
2019-04-06T10:56:22.109Z,2115.00
2019-04-06T10:57:22.069Z,2233.12
2019-04-06T10:58:22.199Z,2385.00
2019-04-06T10:59:22.040Z,2475.00
2019-04-06T11:00:22.089Z,2311.88
2019-04-06T11:01:22.046Z,2351.25
2019-04-06T11:02:22.022Z,2520.00
2019-04-06T11:03:21.990Z,2548.12
2019-04-06T11:04:21.983Z,2441.25
2019-04-06T11:05:21.969Z,2480.62
2019-04-06T11:06:21.982Z,2452.50
2019-04-06T11:07:22.132Z,2396.25
2019-04-06T11:08:22.204Z,2435.62
2019-04-06T11:10:31.208Z,2480.62
2019-04-06T11:11:32.122Z,2413.12
2019-04-06T11:12:32.094Z,2469.38
2019-04-06T11:13:32.091Z,1732.50
2019-04-06T11:14:32.177Z,2188.12
2019-04-06T11:15:32.075Z,1687.50
2019-04-06T11:16:32.066Z,1445.62
2019-04-06T11:17:32.046Z,1878.75
2019-04-06T11:18:32.027Z,2098.12
2019-04-06T11:19:32.024Z,1839.38
2019-04-06T11:20:32.050Z,1158.75
2019-04-06T11:21:32.025Z,2351.25
2019-04-06T11:22:32.261Z,2238.75
2019-04-06T11:23:32.087Z,2328.75
2019-04-06T11:24:31.965Z,2238.75
2019-04-06T11:25:32.089Z,2255.62
2019-04-06T11:26:31.986Z,2244.38
2019-04-06T11:27:32.227Z,2120.62
2019-04-06T11:28:31.925Z,2199.38
2019-04-06T11:29:31.904Z,2160.00
2019-04-06T11:30:31.899Z,2120.62
2019-04-06T11:31:32.070Z,2053.12
2019-04-06T11:32:31.951Z,1996.88
2019-04-06T11:33:32.237Z,2058.75
2019-04-06T11:34:31.844Z,2081.25
2019-04-06T11:35:31.840Z,2233.12
2019-04-06T11:36:31.832Z,2278.12
2019-04-06T11:37:31.841Z,2278.12
2019-04-06T11:38:31.809Z,2255.62
2019-04-06T11:39:31.817Z,2176.88
2019-04-06T11:40:31.784Z,2148.75
2019-04-06T11:41:32.281Z,2098.12
2019-04-06T11:42:31.794Z,2193.75
2019-04-06T11:43:31.845Z,2238.75
2019-04-06T11:44:31.751Z,2278.12
2019-04-06T11:45:31.734Z,2216.25
2019-04-06T11:46:32.296Z,2216.25
2019-04-06T11:47:32.057Z,2216.25
2019-04-06T11:48:31.729Z,1535.62
2019-04-06T11:49:31.692Z,2154.38
2019-04-06T11:50:31.683Z,2165.62
2019-04-06T11:51:31.937Z,2103.75
2019-04-06T11:52:31.669Z,2075.62
2019-04-06T11:53:31.974Z,2098.12
2019-04-06T11:54:31.966Z,2165.62
2019-04-06T11:55:31.838Z,2171.25
2019-04-06T11:56:31.610Z,2160.00
2019-04-06T11:57:31.595Z,2098.12
2019-04-06T11:58:31.615Z,2053.12
2019-04-06T11:59:31.600Z,2070.00
2019-04-06T12:00:31.568Z,2103.75
2019-04-06T12:01:31.550Z,2098.12
2019-04-06T12:02:31.546Z,2165.62
2019-04-06T12:03:31.558Z,2165.62
2019-04-06T12:04:31.527Z,2126.25
2019-04-06T12:05:31.565Z,2086.88
2019-04-06T12:06:31.502Z,2098.12
2019-04-06T12:07:31.679Z,2036.25
2019-04-06T12:08:31.506Z,1980.00
2019-04-06T12:09:31.539Z,1968.75
2019-04-06T12:10:31.472Z,2030.62
2019-04-06T12:11:31.715Z,2047.50
2019-04-06T12:12:31.538Z,2025.00
2019-04-06T12:13:31.454Z,2036.25
2019-04-06T12:14:31.415Z,2070.00
2019-04-06T12:15:31.410Z,2036.25
2019-04-06T12:16:31.422Z,2002.50
2019-04-06T12:17:31.383Z,2036.25
2019-04-06T12:18:31.580Z,2036.25
2019-04-06T12:19:31.368Z,2030.62
2019-04-06T12:20:31.364Z,1991.25
2019-04-06T12:21:31.341Z,1968.75
2019-04-06T12:22:31.331Z,1946.25
2019-04-06T12:23:33.219Z,1996.88
2019-04-06T12:24:31.299Z,1974.38
2019-04-06T12:25:31.437Z,1895.62
2019-04-06T12:26:31.287Z,1845.00
2019-04-06T12:27:31.282Z,1828.12
2019-04-06T12:28:31.278Z,1794.38
2019-04-06T12:29:31.264Z,1749.38
2019-04-06T12:30:37.237Z,1845.00
2019-04-06T12:31:31.242Z,1839.38
2019-04-06T12:32:31.214Z,1951.88
2019-04-06T12:33:31.224Z,1912.50
2019-04-06T12:34:31.472Z,1794.38
2019-04-06T12:35:31.193Z,1732.50
2019-04-06T12:36:31.175Z,1653.75
2019-04-06T12:37:31.875Z,1642.50
2019-04-06T12:38:31.195Z,1704.38
2019-04-06T12:39:31.154Z,1783.12
2019-04-06T12:40:31.163Z,1800.00
2019-04-06T12:41:31.114Z,1800.00
2019-04-06T12:42:31.118Z,1760.62
2019-04-06T12:43:32.005Z,1693.12
2019-04-06T12:44:31.113Z,1681.88
2019-04-06T12:45:31.079Z,1766.25
2019-04-06T12:46:31.075Z,1811.25
2019-04-06T12:47:31.149Z,1608.75
2019-04-06T12:48:31.038Z,1586.25